createdAt,value
2022-09-12T00:00:12.821Z,4
2022-09-12T00:04:13.138Z,4
2022-09-12T00:08:12.827Z,4
2022-09-12T00:12:13.335Z,5
2022-09-12T00:16:13.318Z,4
2022-09-12T00:20:13.390Z,4
2022-09-12T00:24:13.112Z,5
2022-09-12T00:28:12.913Z,4
2022-09-12T00:32:12.858Z,4
2022-09-12T00:36:13.344Z,5
2022-09-12T00:40:12.632Z,5
2022-09-12T00:44:12.993Z,5
2022-09-12T00:48:12.632Z,4
2022-09-12T00:52:13.416Z,4
2022-09-12T00:56:13.384Z,4
2022-09-12T01:00:15.478Z,5
2022-09-12T01:04:13.206Z,4
2022-09-12T01:08:13.530Z,4
2022-09-12T01:12:13.063Z,4
2022-09-12T01:16:13.317Z,5
2022-09-12T01:20:13.255Z,5
2022-09-12T01:24:12.674Z,4
2022-09-12T01:28:13.277Z,4
2022-09-12T01:32:13.387Z,4
2022-09-12T01:36:13.207Z,4
2022-09-12T01:40:13.175Z,4
2022-09-12T01:44:12.956Z,4
2022-09-12T01:48:13.341Z,5
2022-09-12T01:52:12.787Z,5
2022-09-12T01:56:12.819Z,5
2022-09-12T02:00:16.133Z,5
2022-09-12T02:04:13.411Z,4
2022-09-12T02:08:13.034Z,4
2022-09-12T02:12:12.610Z,4
2022-09-12T02:16:13.175Z,4
2022-09-12T02:20:21.336Z,4
2022-09-12T02:24:13.475Z,5
2022-09-12T02:28:12.789Z,6
2022-09-12T02:32:13.060Z,6
2022-09-12T02:36:12.980Z,4
2022-09-12T02:40:13.330Z,4
2022-09-12T02:44:13.403Z,4
2022-09-12T02:48:13.526Z,4
2022-09-12T02:52:13.503Z,4
2022-09-12T02:56:13.436Z,4
2022-09-12T03:00:13.013Z,4
2022-09-12T03:04:12.746Z,4
2022-09-12T03:08:13.394Z,4
2022-09-12T03:12:13.285Z,4
2022-09-12T03:16:12.546Z,5
2022-09-12T03:20:13.164Z,5
2022-09-12T03:24:12.657Z,5
2022-09-12T03:28:13.339Z,5
2022-09-12T03:32:12.488Z,5
2022-09-12T03:36:13.091Z,5
2022-09-12T03:40:12.891Z,5
2022-09-12T03:44:13.121Z,5
2022-09-12T03:48:12.669Z,5
2022-09-12T03:52:13.050Z,5
2022-09-12T03:56:12.805Z,5
2022-09-12T04:00:19.623Z,4
2022-09-12T04:04:12.840Z,5
2022-09-12T04:08:12.552Z,5
2022-09-12T04:12:13.309Z,5
2022-09-12T04:16:12.875Z,4
2022-09-12T04:20:13.036Z,4
2022-09-12T04:24:13.157Z,4
2022-09-12T04:28:13.066Z,5
2022-09-12T04:32:12.597Z,5
2022-09-12T04:36:12.638Z,7
2022-09-12T04:40:13.413Z,4
2022-09-12T04:44:12.966Z,4
2022-09-12T04:48:13.422Z,4
2022-09-12T04:52:13.273Z,5
2022-09-12T04:56:12.581Z,5
2022-09-12T05:00:18.749Z,4
2022-09-12T05:04:13.324Z,5
2022-09-12T05:08:12.833Z,5
2022-09-12T05:12:16.690Z,4
2022-09-12T05:16:13.541Z,5
2022-09-12T05:20:13.234Z,5
2022-09-12T05:24:12.967Z,5
2022-09-12T05:28:13.182Z,5
2022-09-12T05:32:12.909Z,5
2022-09-12T05:36:13.354Z,5
2022-09-12T05:40:12.874Z,5
2022-09-12T05:44:12.691Z,5
2022-09-12T05:48:13.200Z,4
2022-09-12T05:52:13.421Z,5
2022-09-12T05:56:12.836Z,5
2022-09-12T06:00:15.601Z,5
2022-09-12T06:04:13.158Z,5
2022-09-12T06:08:13.216Z,5
2022-09-12T06:12:12.876Z,5
2022-09-12T06:16:13.273Z,5
2022-09-12T06:20:13.121Z,5
2022-09-12T06:24:12.709Z,5
2022-09-12T06:28:12.728Z,5
2022-09-12T06:32:12.854Z,5
2022-09-12T06:36:12.887Z,4
2022-09-12T06:40:13.793Z,4
2022-09-12T06:44:13.156Z,4
2022-09-12T06:48:12.758Z,5
2022-09-12T06:52:13.029Z,4
2022-09-12T06:56:13.005Z,4
2022-09-12T07:00:16.537Z,4
2022-09-12T07:04:13.284Z,5
2022-09-12T07:08:12.546Z,5
2022-09-12T07:12:13.073Z,5
2022-09-12T07:16:17.271Z,5
2022-09-12T07:20:12.999Z,5
2022-09-12T07:24:13.325Z,5
2022-09-12T07:28:13.128Z,5
2022-09-12T07:32:12.580Z,5
2022-09-12T07:36:12.611Z,5
2022-09-12T07:40:13.234Z,5
2022-09-12T07:44:12.533Z,5
2022-09-12T07:48:13.350Z,4
2022-09-12T07:52:13.257Z,5
2022-09-12T07:56:13.091Z,5
2022-09-12T08:00:15.726Z,5
2022-09-12T08:04:13.263Z,5
2022-09-12T08:08:13.455Z,5
2022-09-12T08:12:12.590Z,5
2022-09-12T08:16:13.108Z,4
2022-09-12T08:20:12.548Z,4
2022-09-12T08:24:13.150Z,4
2022-09-12T08:28:12.533Z,4
2022-09-12T08:32:13.190Z,4
2022-09-12T08:36:13.187Z,7
2022-09-12T08:40:13.644Z,5
2022-09-12T08:44:12.900Z,5
2022-09-12T08:48:13.262Z,5
2022-09-12T08:52:13.403Z,9
2022-09-12T08:56:13.246Z,9
2022-09-12T09:00:16.219Z,6
2022-09-12T09:04:12.710Z,8
2022-09-12T09:08:12.936Z,8
2022-09-12T09:12:12.751Z,8
2022-09-12T09:16:12.773Z,7
2022-09-12T09:20:13.439Z,7
2022-09-12T09:24:13.494Z,7
2022-09-12T09:28:13.159Z,5
2022-09-12T09:32:12.568Z,5
2022-09-12T09:36:13.370Z,5
2022-09-12T09:40:13.310Z,5
2022-09-12T09:44:12.805Z,5
2022-09-12T09:48:13.408Z,4
2022-09-12T09:52:13.193Z,5
2022-09-12T09:56:12.811Z,5
2022-09-12T10:00:15.521Z,5
2022-09-12T10:04:13.284Z,4
2022-09-12T10:08:12.844Z,4
2022-09-12T10:12:13.395Z,5
2022-09-12T10:16:12.763Z,4
2022-09-12T10:20:33.008Z,4
2022-09-12T10:24:13.465Z,5
2022-09-12T10:28:13.104Z,5
2022-09-12T10:32:13.364Z,5
2022-09-12T10:36:13.092Z,4
2022-09-12T10:40:12.987Z,5
2022-09-12T10:44:12.654Z,5
2022-09-12T10:48:18.893Z,4
2022-09-12T10:52:13.016Z,4
2022-09-12T10:56:12.822Z,4
2022-09-12T11:00:16.259Z,4
2022-09-12T11:04:13.352Z,5
2022-09-12T11:08:13.300Z,5
2022-09-12T11:12:12.770Z,5
2022-09-12T11:16:13.042Z,5
2022-09-12T11:20:13.143Z,5
2022-09-12T11:24:12.833Z,3
2022-09-12T11:28:12.517Z,4
2022-09-12T11:32:12.522Z,4
2022-09-12T11:36:13.314Z,2
2022-09-12T11:40:13.247Z,4
2022-09-12T11:44:12.673Z,4
2022-09-12T11:48:13.253Z,2
2022-09-12T11:52:13.246Z,3
2022-09-12T11:56:13.174Z,3
2022-09-12T12:00:18.027Z,2
2022-09-12T12:04:13.044Z,3
2022-09-12T12:08:13.264Z,3
2022-09-12T12:12:12.773Z,2
2022-09-12T12:16:13.543Z,3
2022-09-12T12:20:18.877Z,3
2022-09-12T12:24:13.434Z,3
2022-09-12T12:28:13.266Z,3
2022-09-12T12:32:13.037Z,3
2022-09-12T12:36:12.954Z,3
2022-09-12T12:40:13.071Z,2
2022-09-12T12:44:13.413Z,2
2022-09-12T12:48:18.897Z,3
2022-09-12T12:52:13.079Z,3
2022-09-12T12:56:13.075Z,3
2022-09-12T13:00:16.331Z,2
2022-09-12T13:04:13.218Z,5
2022-09-12T13:08:13.126Z,5
2022-09-12T13:12:13.177Z,3
2022-09-12T13:16:13.522Z,3
2022-09-12T13:20:38.913Z,3
2022-09-12T13:24:12.904Z,3
2022-09-12T13:28:12.837Z,3
2022-09-12T13:32:13.506Z,3
2022-09-12T13:36:13.169Z,3
2022-09-12T13:40:13.353Z,3
2022-09-12T13:44:12.982Z,3
2022-09-12T13:48:13.393Z,3
2022-09-12T13:52:12.800Z,3
2022-09-12T13:56:12.832Z,3
2022-09-12T14:00:15.825Z,2
2022-09-12T14:04:13.132Z,3
2022-09-12T14:08:13.300Z,3
2022-09-12T14:12:13.148Z,5
2022-09-12T14:16:13.335Z,3
2022-09-12T14:20:12.873Z,3
2022-09-12T14:24:12.701Z,3
2022-09-12T14:28:12.851Z,3
2022-09-12T14:32:13.179Z,3
2022-09-12T14:36:13.003Z,2
2022-09-12T14:40:12.961Z,3
2022-09-12T14:44:12.901Z,3
2022-09-12T14:48:13.348Z,2
2022-09-12T14:52:12.937Z,3
2022-09-12T14:56:13.219Z,3
2022-09-12T15:00:12.925Z,3
2022-09-12T15:04:13.311Z,3
2022-09-12T15:08:12.829Z,3
2022-09-12T15:12:12.758Z,3
2022-09-12T15:16:12.699Z,5
2022-09-12T15:20:12.706Z,5
2022-09-12T15:24:13.243Z,3
2022-09-12T15:28:13.354Z,3
2022-09-12T15:32:12.761Z,3
2022-09-12T15:36:13.020Z,3
2022-09-12T15:40:13.711Z,3
2022-09-12T15:44:13.298Z,3
2022-09-12T15:48:13.546Z,2
2022-09-12T15:52:12.942Z,3
2022-09-12T15:56:13.089Z,3
2022-09-12T16:00:17.709Z,2
2022-09-12T16:04:12.902Z,2
2022-09-12T16:08:13.431Z,2
2022-09-12T16:12:12.996Z,3
2022-09-12T16:16:12.883Z,3
2022-09-12T16:20:13.028Z,3
2022-09-12T16:24:12.526Z,3
2022-09-12T16:28:13.295Z,3
2022-09-12T16:32:13.164Z,3
2022-09-12T16:36:13.218Z,3
2022-09-12T16:40:13.359Z,3
2022-09-12T16:44:13.018Z,3
2022-09-12T16:48:13.292Z,3
2022-09-12T16:52:13.394Z,3
2022-09-12T16:56:12.960Z,3
2022-09-12T17:00:17.230Z,2
2022-09-12T17:04:12.953Z,2
2022-09-12T17:08:13.102Z,2
2022-09-12T17:12:12.957Z,3
2022-09-12T17:16:13.441Z,3
2022-09-12T17:20:12.996Z,3
2022-09-12T17:24:13.007Z,2
2022-09-12T17:28:13.284Z,3
2022-09-12T17:32:16.971Z,3
2022-09-12T17:36:13.008Z,3
2022-09-12T17:40:13.065Z,3
2022-09-12T17:44:13.215Z,3
2022-09-12T17:48:12.529Z,2
2022-09-12T17:52:13.182Z,3
2022-09-12T17:56:12.785Z,3
2022-09-12T18:00:16.310Z,2
2022-09-12T18:04:13.109Z,4
2022-09-12T18:08:13.287Z,4
2022-09-12T18:12:13.063Z,3
2022-09-12T18:16:13.336Z,4
2022-09-12T18:20:12.731Z,4
2022-09-12T18:24:13.074Z,4
2022-09-12T18:28:18.540Z,5
2022-09-12T18:32:12.463Z,5
2022-09-12T18:36:13.085Z,4
2022-09-12T18:40:13.251Z,3
2022-09-12T18:44:12.551Z,3
2022-09-12T18:48:13.438Z,5
2022-09-12T18:52:12.926Z,5
2022-09-12T18:56:12.526Z,5
2022-09-12T19:00:23.538Z,3
2022-09-12T19:04:12.747Z,5
2022-09-12T19:08:12.915Z,5
2022-09-12T19:12:12.908Z,3
2022-09-12T19:16:12.885Z,4
2022-09-12T19:20:13.290Z,4
2022-09-12T19:24:13.254Z,4
2022-09-12T19:28:13.149Z,5
2022-09-12T19:32:13.230Z,5
2022-09-12T19:36:33.994Z,3
2022-09-12T19:40:13.442Z,3
2022-09-12T19:44:13.328Z,3
2022-09-12T19:48:12.991Z,3
2022-09-12T19:52:17.286Z,2
2022-09-12T19:56:12.808Z,2
2022-09-12T20:00:14.545Z,3
2022-09-12T20:04:13.289Z,4
2022-09-12T20:08:13.144Z,4
2022-09-12T20:12:13.421Z,5
2022-09-12T20:16:12.509Z,3
2022-09-12T20:20:13.040Z,3
2022-09-12T20:24:13.154Z,3
2022-09-12T20:28:13.102Z,3
2022-09-12T20:32:12.916Z,3
2022-09-12T20:36:13.153Z,4
2022-09-12T20:40:12.867Z,5
2022-09-12T20:44:12.649Z,5
2022-09-12T20:48:12.600Z,4
2022-09-12T20:52:12.952Z,5
2022-09-12T20:56:13.214Z,5
2022-09-12T21:00:12.741Z,5
2022-09-12T21:04:15.216Z,4
2022-09-12T21:08:12.750Z,4
2022-09-12T21:12:12.921Z,4
2022-09-12T21:16:13.573Z,5
2022-09-12T21:20:13.372Z,5
2022-09-12T21:24:13.102Z,4
2022-09-12T21:28:13.410Z,3
2022-09-12T21:32:14.385Z,3
2022-09-12T21:36:12.878Z,5
2022-09-12T21:40:12.779Z,5
2022-09-12T21:44:12.625Z,5
2022-09-12T21:48:12.615Z,5
2022-09-12T21:52:12.558Z,3
2022-09-12T21:56:13.289Z,3
2022-09-12T22:00:22.563Z,3
2022-09-12T22:04:12.963Z,5
2022-09-12T22:08:12.569Z,5
2022-09-12T22:12:12.679Z,5
2022-09-12T22:16:13.653Z,4
2022-09-12T22:20:12.761Z,4
2022-09-12T22:24:12.683Z,4
2022-09-12T22:28:13.390Z,3
2022-09-12T22:32:13.404Z,3
2022-09-12T22:36:13.433Z,4
2022-09-12T22:40:13.418Z,5
2022-09-12T22:44:13.461Z,5
2022-09-12T22:48:18.615Z,4
2022-09-12T22:52:13.065Z,4
2022-09-12T22:56:13.412Z,4
2022-09-12T23:00:15.422Z,4
2022-09-12T23:04:12.834Z,4
2022-09-12T23:08:13.213Z,4
2022-09-12T23:12:13.094Z,4
2022-09-12T23:16:13.536Z,4
2022-09-12T23:20:13.236Z,4
2022-09-12T23:24:12.868Z,6
2022-09-12T23:28:12.661Z,5
2022-09-12T23:32:12.747Z,5
2022-09-12T23:36:13.091Z,5
2022-09-12T23:40:13.764Z,6
2022-09-12T23:44:12.537Z,6
2022-09-12T23:48:13.291Z,6
2022-09-12T23:52:13.243Z,4
2022-09-12T23:56:12.854Z,4
